sensor_id;sensor_type;location;lat;lon;timestamp;P1;durP1;ratioP1;P2;durP2;ratioP2
78005;SDS011;67211;42.146;24.756;2023-01-28T00:02:15;7.88;;;5.22;;
78005;SDS011;67211;42.146;24.756;2023-01-28T00:04:41;6.32;;;4.10;;
78005;SDS011;67211;42.146;24.756;2023-01-28T00:07:06;7.15;;;4.50;;
78005;SDS011;67211;42.146;24.756;2023-01-28T00:09:31;4.30;;;3.13;;
78005;SDS011;67211;42.146;24.756;2023-01-28T00:11:57;6.25;;;4.30;;
78005;SDS011;67211;42.146;24.756;2023-01-28T00:14:23;4.60;;;3.75;;
78005;SDS011;67211;42.146;24.756;2023-01-28T00:16:48;4.60;;;3.67;;
78005;SDS011;67211;42.146;24.756;2023-01-28T00:19:14;5.45;;;3.38;;
78005;SDS011;67211;42.146;24.756;2023-01-28T00:21:39;4.93;;;3.15;;
78005;SDS011;67211;42.146;24.756;2023-01-28T00:24:05;4.80;;;3.45;;
78005;SDS011;67211;42.146;24.756;2023-01-28T00:26:33;4.32;;;3.80;;
78005;SDS011;67211;42.146;24.756;2023-01-28T00:28:58;4.93;;;3.55;;
78005;SDS011;67211;42.146;24.756;2023-01-28T00:31:24;5.15;;;3.95;;
78005;SDS011;67211;42.146;24.756;2023-01-28T00:33:51;4.28;;;3.38;;
78005;SDS011;67211;42.146;24.756;2023-01-28T00:36:18;4.82;;;3.38;;
78005;SDS011;67211;42.146;24.756;2023-01-28T00:38:49;4.95;;;4.45;;
78005;SDS011;67211;42.146;24.756;2023-01-28T00:41:19;5.30;;;3.60;;
78005;SDS011;67211;42.146;24.756;2023-01-28T00:43:46;5.80;;;3.67;;
78005;SDS011;67211;42.146;24.756;2023-01-28T00:46:12;4.70;;;3.20;;
78005;SDS011;67211;42.146;24.756;2023-01-28T00:48:38;4.80;;;3.85;;
78005;SDS011;67211;42.146;24.756;2023-01-28T00:51:05;5.05;;;4.03;;
78005;SDS011;67211;42.146;24.756;2023-01-28T00:53:31;5.28;;;3.92;;
78005;SDS011;67211;42.146;24.756;2023-01-28T00:55:58;5.03;;;3.78;;
78005;SDS011;67211;42.146;24.756;2023-01-28T00:58:24;4.20;;;3.25;;
78005;SDS011;67211;42.146;24.756;2023-01-28T01:00:50;3.95;;;3.55;;
78005;SDS011;67211;42.146;24.756;2023-01-28T01:03:16;5.43;;;4.68;;
78005;SDS011;67211;42.146;24.756;2023-01-28T01:05:42;7.20;;;4.88;;
78005;SDS011;67211;42.146;24.756;2023-01-28T01:08:07;5.90;;;3.78;;
78005;SDS011;67211;42.146;24.756;2023-01-28T01:10:33;6.13;;;5.53;;
78005;SDS011;67211;42.146;24.756;2023-01-28T01:12:58;4.78;;;3.70;;
78005;SDS011;67211;42.146;24.756;2023-01-28T01:15:24;4.75;;;3.70;;
78005;SDS011;67211;42.146;24.756;2023-01-28T01:17:50;5.78;;;5.05;;
78005;SDS011;67211;42.146;24.756;2023-01-28T01:20:17;5.43;;;3.13;;
78005;SDS011;67211;42.146;24.756;2023-01-28T01:22:45;4.78;;;3.63;;
78005;SDS011;67211;42.146;24.756;2023-01-28T01:25:11;5.60;;;3.38;;
78005;SDS011;67211;42.146;24.756;2023-01-28T01:27:37;4.70;;;3.88;;
78005;SDS011;67211;42.146;24.756;2023-01-28T01:30:03;4.93;;;3.30;;
78005;SDS011;67211;42.146;24.756;2023-01-28T01:32:30;4.75;;;3.20;;
78005;SDS011;67211;42.146;24.756;2023-01-28T01:34:55;4.82;;;3.53;;
78005;SDS011;67211;42.146;24.756;2023-01-28T01:37:21;4.72;;;3.67;;
78005;SDS011;67211;42.146;24.756;2023-01-28T01:39:47;3.78;;;2.95;;
78005;SDS011;67211;42.146;24.756;2023-01-28T01:42:13;4.72;;;3.47;;
78005;SDS011;67211;42.146;24.756;2023-01-28T01:44:55;4.35;;;3.38;;
78005;SDS011;67211;42.146;24.756;2023-01-28T01:47:26;4.18;;;3.78;;
78005;SDS011;67211;42.146;24.756;2023-01-28T01:49:56;5.68;;;4.28;;
78005;SDS011;67211;42.146;24.756;2023-01-28T01:52:24;10.18;;;6.65;;
78005;SDS011;67211;42.146;24.756;2023-01-28T01:54:52;5.93;;;4.60;;
78005;SDS011;67211;42.146;24.756;2023-01-28T01:57:26;4.47;;;3.58;;
78005;SDS011;67211;42.146;24.756;2023-01-28T01:59:54;4.82;;;3.30;;
78005;SDS011;67211;42.146;24.756;2023-01-28T02:02:20;4.95;;;3.58;;
78005;SDS011;67211;42.146;24.756;2023-01-28T02:04:46;5.38;;;3.70;;
78005;SDS011;67211;42.146;24.756;2023-01-28T02:07:12;4.45;;;3.55;;
78005;SDS011;67211;42.146;24.756;2023-01-28T02:09:39;4.55;;;3.38;;
78005;SDS011;67211;42.146;24.756;2023-01-28T02:12:10;5.53;;;3.28;;
78005;SDS011;67211;42.146;24.756;2023-01-28T02:14:47;6.03;;;3.72;;
78005;SDS011;67211;42.146;24.756;2023-01-28T02:17:15;5.78;;;3.45;;
78005;SDS011;67211;42.146;24.756;2023-01-28T02:19:55;4.93;;;3.47;;
78005;SDS011;67211;42.146;24.756;2023-01-28T02:25:32;4.72;;;3.00;;
78005;SDS011;67211;42.146;24.756;2023-01-28T02:28:12;4.25;;;2.65;;
78005;SDS011;67211;42.146;24.756;2023-01-28T02:34:15;4.47;;;3.60;;
78005;SDS011;67211;42.146;24.756;2023-01-28T02:36:52;4.57;;;3.58;;
78005;SDS011;67211;42.146;24.756;2023-01-28T02:39:26;5.05;;;4.32;;
78005;SDS011;67211;42.146;24.756;2023-01-28T02:41:55;4.20;;;3.25;;
78005;SDS011;67211;42.146;24.756;2023-01-28T02:44:47;4.32;;;3.22;;
78005;SDS011;67211;42.146;24.756;2023-01-28T02:47:14;4.00;;;3.03;;
78005;SDS011;67211;42.146;24.756;2023-01-28T02:49:59;7.25;;;3.30;;
78005;SDS011;67211;42.146;24.756;2023-01-28T02:55:38;3.90;;;2.85;;
78005;SDS011;67211;42.146;24.756;2023-01-28T02:58:13;4.45;;;3.15;;
78005;SDS011;67211;42.146;24.756;2023-01-28T03:03:21;4.70;;;2.78;;
78005;SDS011;67211;42.146;24.756;2023-01-28T03:06:09;3.92;;;2.80;;
78005;SDS011;67211;42.146;24.756;2023-01-28T03:08:44;4.72;;;3.33;;
78005;SDS011;67211;42.146;24.756;2023-01-28T03:11:32;3.78;;;3.08;;
78005;SDS011;67211;42.146;24.756;2023-01-28T03:14:18;5.35;;;4.00;;
78005;SDS011;67211;42.146;24.756;2023-01-28T03:17:02;6.65;;;4.50;;
78005;SDS011;67211;42.146;24.756;2023-01-28T03:19:48;9.13;;;5.20;;
78005;SDS011;67211;42.146;24.756;2023-01-28T03:22:36;8.23;;;5.25;;
78005;SDS011;67211;42.146;24.756;2023-01-28T03:25:22;6.28;;;3.92;;
78005;SDS011;67211;42.146;24.756;2023-01-28T03:28:09;7.25;;;5.63;;
78005;SDS011;67211;42.146;24.756;2023-01-28T03:31:02;12.40;;;6.05;;
78005;SDS011;67211;42.146;24.756;2023-01-28T03:33:49;10.93;;;5.82;;
78005;SDS011;67211;42.146;24.756;2023-01-28T03:36:34;9.95;;;5.22;;
78005;SDS011;67211;42.146;24.756;2023-01-28T03:39:25;8.88;;;3.88;;
78005;SDS011;67211;42.146;24.756;2023-01-28T03:41:55;11.27;;;6.05;;
78005;SDS011;67211;42.146;24.756;2023-01-28T03:44:22;10.90;;;6.63;;
78005;SDS011;67211;42.146;24.756;2023-01-28T03:47:06;22.15;;;8.30;;
78005;SDS011;67211;42.146;24.756;2023-01-28T03:49:33;26.08;;;10.95;;
78005;SDS011;67211;42.146;24.756;2023-01-28T03:51:58;17.30;;;8.25;;
78005;SDS011;67211;42.146;24.756;2023-01-28T03:54:24;11.55;;;5.85;;
78005;SDS011;67211;42.146;24.756;2023-01-28T03:56:49;7.05;;;4.57;;
78005;SDS011;67211;42.146;24.756;2023-01-28T03:59:15;12.60;;;6.25;;
78005;SDS011;67211;42.146;24.756;2023-01-28T04:01:40;6.82;;;3.90;;
78005;SDS011;67211;42.146;24.756;2023-01-28T04:04:05;13.18;;;7.40;;
78005;SDS011;67211;42.146;24.756;2023-01-28T04:06:31;8.50;;;4.70;;
78005;SDS011;67211;42.146;24.756;2023-01-28T04:08:56;13.50;;;5.88;;
78005;SDS011;67211;42.146;24.756;2023-01-28T04:11:23;11.65;;;6.43;;
78005;SDS011;67211;42.146;24.756;2023-01-28T04:13:50;8.82;;;4.80;;
78005;SDS011;67211;42.146;24.756;2023-01-28T04:16:16;11.30;;;4.70;;
78005;SDS011;67211;42.146;24.756;2023-01-28T04:18:43;8.80;;;5.88;;
78005;SDS011;67211;42.146;24.756;2023-01-28T04:21:08;5.85;;;3.67;;
78005;SDS011;67211;42.146;24.756;2023-01-28T04:23:34;4.95;;;3.53;;
78005;SDS011;67211;42.146;24.756;2023-01-28T04:26:00;7.18;;;4.55;;
78005;SDS011;67211;42.146;24.756;2023-01-28T04:28:25;4.30;;;3.40;;
78005;SDS011;67211;42.146;24.756;2023-01-28T04:30:51;6.13;;;3.33;;
78005;SDS011;67211;42.146;24.756;2023-01-28T04:33:17;5.90;;;4.32;;
78005;SDS011;67211;42.146;24.756;2023-01-28T04:35:42;5.40;;;3.33;;
78005;SDS011;67211;42.146;24.756;2023-01-28T04:38:08;4.32;;;3.90;;
78005;SDS011;67211;42.146;24.756;2023-01-28T04:40:33;6.07;;;3.95;;
78005;SDS011;67211;42.146;24.756;2023-01-28T04:42:58;5.70;;;3.60;;
78005;SDS011;67211;42.146;24.756;2023-01-28T04:45:24;6.10;;;3.60;;
78005;SDS011;67211;42.146;24.756;2023-01-28T04:47:50;5.00;;;3.30;;
78005;SDS011;67211;42.146;24.756;2023-01-28T04:50:15;5.38;;;3.97;;
78005;SDS011;67211;42.146;24.756;2023-01-28T04:52:41;4.07;;;3.55;;
78005;SDS011;67211;42.146;24.756;2023-01-28T04:55:07;5.20;;;3.10;;
78005;SDS011;67211;42.146;24.756;2023-01-28T04:57:32;5.50;;;3.25;;
78005;SDS011;67211;42.146;24.756;2023-01-28T04:59:58;4.32;;;2.97;;
78005;SDS011;67211;42.146;24.756;2023-01-28T05:02:23;4.85;;;3.05;;
78005;SDS011;67211;42.146;24.756;2023-01-28T05:04:49;4.40;;;2.45;;
78005;SDS011;67211;42.146;24.756;2023-01-28T05:07:14;4.70;;;2.63;;
78005;SDS011;67211;42.146;24.756;2023-01-28T05:09:39;4.25;;;3.47;;
78005;SDS011;67211;42.146;24.756;2023-01-28T05:12:05;5.30;;;4.00;;
78005;SDS011;67211;42.146;24.756;2023-01-28T05:14:30;4.78;;;3.22;;
78005;SDS011;67211;42.146;24.756;2023-01-28T05:16:56;6.68;;;3.47;;
78005;SDS011;67211;42.146;24.756;2023-01-28T05:19:21;8.85;;;4.18;;
78005;SDS011;67211;42.146;24.756;2023-01-28T05:21:47;11.68;;;6.22;;
78005;SDS011;67211;42.146;24.756;2023-01-28T05:24:12;13.27;;;6.20;;
78005;SDS011;67211;42.146;24.756;2023-01-28T05:26:38;12.52;;;6.30;;
78005;SDS011;67211;42.146;24.756;2023-01-28T05:29:04;11.55;;;6.40;;
78005;SDS011;67211;42.146;24.756;2023-01-28T05:31:29;9.55;;;5.75;;
78005;SDS011;67211;42.146;24.756;2023-01-28T05:33:54;10.35;;;5.75;;
78005;SDS011;67211;42.146;24.756;2023-01-28T05:36:20;10.48;;;6.35;;
78005;SDS011;67211;42.146;24.756;2023-01-28T05:38:45;5.07;;;3.40;;
78005;SDS011;67211;42.146;24.756;2023-01-28T05:41:10;7.88;;;5.03;;
78005;SDS011;67211;42.146;24.756;2023-01-28T05:43:36;8.20;;;4.85;;
78005;SDS011;67211;42.146;24.756;2023-01-28T05:46:01;8.48;;;4.88;;
78005;SDS011;67211;42.146;24.756;2023-01-28T05:48:27;6.85;;;4.30;;
78005;SDS011;67211;42.146;24.756;2023-01-28T05:50:52;7.05;;;5.10;;
78005;SDS011;67211;42.146;24.756;2023-01-28T05:53:18;7.00;;;4.43;;
78005;SDS011;67211;42.146;24.756;2023-01-28T05:55:46;5.93;;;3.90;;
78005;SDS011;67211;42.146;24.756;2023-01-28T05:58:12;7.03;;;4.90;;
78005;SDS011;67211;42.146;24.756;2023-01-28T06:00:38;5.00;;;4.13;;
78005;SDS011;67211;42.146;24.756;2023-01-28T06:03:03;5.10;;;3.60;;
78005;SDS011;67211;42.146;24.756;2023-01-28T06:05:28;6.38;;;4.07;;
78005;SDS011;67211;42.146;24.756;2023-01-28T06:07:54;4.97;;;3.50;;
78005;SDS011;67211;42.146;24.756;2023-01-28T06:10:19;5.93;;;3.95;;
78005;SDS011;67211;42.146;24.756;2023-01-28T06:12:45;4.75;;;3.97;;
78005;SDS011;67211;42.146;24.756;2023-01-28T06:15:10;5.25;;;3.38;;
78005;SDS011;67211;42.146;24.756;2023-01-28T06:17:36;5.53;;;3.83;;
78005;SDS011;67211;42.146;24.756;2023-01-28T06:20:02;5.32;;;3.47;;
78005;SDS011;67211;42.146;24.756;2023-01-28T06:22:27;6.40;;;3.88;;
78005;SDS011;67211;42.146;24.756;2023-01-28T06:24:53;4.75;;;3.75;;
78005;SDS011;67211;42.146;24.756;2023-01-28T06:27:18;5.35;;;3.80;;
78005;SDS011;67211;42.146;24.756;2023-01-28T06:29:44;6.00;;;4.72;;
78005;SDS011;67211;42.146;24.756;2023-01-28T06:32:09;5.63;;;3.60;;
78005;SDS011;67211;42.146;24.756;2023-01-28T06:34:35;5.82;;;4.18;;
78005;SDS011;67211;42.146;24.756;2023-01-28T06:37:00;7.72;;;4.20;;
78005;SDS011;67211;42.146;24.756;2023-01-28T06:39:27;7.70;;;4.90;;
78005;SDS011;67211;42.146;24.756;2023-01-28T06:41:55;5.57;;;4.85;;
78005;SDS011;67211;42.146;24.756;2023-01-28T06:44:21;14.68;;;7.30;;
78005;SDS011;67211;42.146;24.756;2023-01-28T06:46:47;9.35;;;5.88;;
78005;SDS011;67211;42.146;24.756;2023-01-28T06:49:13;11.18;;;7.05;;
78005;SDS011;67211;42.146;24.756;2023-01-28T06:51:38;8.18;;;4.85;;
78005;SDS011;67211;42.146;24.756;2023-01-28T06:54:03;8.52;;;5.20;;
78005;SDS011;67211;42.146;24.756;2023-01-28T06:56:29;6.95;;;4.45;;
78005;SDS011;67211;42.146;24.756;2023-01-28T06:58:55;6.80;;;4.57;;
78005;SDS011;67211;42.146;24.756;2023-01-28T07:01:20;6.40;;;4.53;;
78005;SDS011;67211;42.146;24.756;2023-01-28T07:03:45;6.85;;;5.07;;
78005;SDS011;67211;42.146;24.756;2023-01-28T07:06:11;7.15;;;5.03;;
78005;SDS011;67211;42.146;24.756;2023-01-28T07:08:36;7.40;;;5.85;;
78005;SDS011;67211;42.146;24.756;2023-01-28T07:11:02;5.78;;;4.07;;
78005;SDS011;67211;42.146;24.756;2023-01-28T07:13:28;8.20;;;5.45;;
78005;SDS011;67211;42.146;24.756;2023-01-28T07:15:54;5.13;;;4.40;;
78005;SDS011;67211;42.146;24.756;2023-01-28T07:18:19;5.60;;;4.57;;
78005;SDS011;67211;42.146;24.756;2023-01-28T07:20:45;5.22;;;4.13;;
78005;SDS011;67211;42.146;24.756;2023-01-28T07:23:10;5.57;;;3.95;;
78005;SDS011;67211;42.146;24.756;2023-01-28T07:25:36;7.05;;;4.93;;
78005;SDS011;67211;42.146;24.756;2023-01-28T07:28:01;6.35;;;4.10;;
78005;SDS011;67211;42.146;24.756;2023-01-28T07:30:27;5.97;;;4.00;;
78005;SDS011;67211;42.146;24.756;2023-01-28T07:32:53;4.63;;;3.70;;
78005;SDS011;67211;42.146;24.756;2023-01-28T07:35:23;5.65;;;3.85;;
78005;SDS011;67211;42.146;24.756;2023-01-28T07:37:54;5.47;;;4.45;;
78005;SDS011;67211;42.146;24.756;2023-01-28T07:40:21;5.47;;;3.80;;
78005;SDS011;67211;42.146;24.756;2023-01-28T07:42:46;6.88;;;4.05;;
78005;SDS011;67211;42.146;24.756;2023-01-28T07:45:12;8.80;;;4.65;;
78005;SDS011;67211;42.146;24.756;2023-01-28T07:47:37;6.40;;;4.68;;
78005;SDS011;67211;42.146;24.756;2023-01-28T07:50:03;6.50;;;5.07;;
78005;SDS011;67211;42.146;24.756;2023-01-28T07:52:29;6.20;;;4.57;;
78005;SDS011;67211;42.146;24.756;2023-01-28T07:54:54;7.32;;;4.15;;
78005;SDS011;67211;42.146;24.756;2023-01-28T07:57:19;5.60;;;3.75;;
78005;SDS011;67211;42.146;24.756;2023-01-28T07:59:50;6.68;;;4.95;;
78005;SDS011;67211;42.146;24.756;2023-01-28T08:02:16;6.30;;;4.70;;
78005;SDS011;67211;42.146;24.756;2023-01-28T08:04:42;13.68;;;7.10;;
78005;SDS011;67211;42.146;24.756;2023-01-28T08:07:07;17.00;;;9.82;;
78005;SDS011;67211;42.146;24.756;2023-01-28T08:09:32;8.50;;;5.63;;
78005;SDS011;67211;42.146;24.756;2023-01-28T08:11:58;9.25;;;6.47;;
78005;SDS011;67211;42.146;24.756;2023-01-28T08:14:26;5.13;;;4.28;;
78005;SDS011;67211;42.146;24.756;2023-01-28T08:16:51;11.05;;;6.82;;
78005;SDS011;67211;42.146;24.756;2023-01-28T08:19:16;7.25;;;5.53;;
78005;SDS011;67211;42.146;24.756;2023-01-28T08:21:42;5.43;;;4.40;;
78005;SDS011;67211;42.146;24.756;2023-01-28T08:24:08;7.03;;;5.10;;
78005;SDS011;67211;42.146;24.756;2023-01-28T08:26:34;6.20;;;4.53;;
78005;SDS011;67211;42.146;24.756;2023-01-28T08:28:59;6.03;;;4.45;;
78005;SDS011;67211;42.146;24.756;2023-01-28T08:31:25;4.88;;;4.05;;
78005;SDS011;67211;42.146;24.756;2023-01-28T08:33:51;4.63;;;3.83;;
78005;SDS011;67211;42.146;24.756;2023-01-28T08:36:17;4.40;;;3.97;;
78005;SDS011;67211;42.146;24.756;2023-01-28T08:38:42;4.97;;;4.28;;
78005;SDS011;67211;42.146;24.756;2023-01-28T08:41:08;4.68;;;3.47;;
78005;SDS011;67211;42.146;24.756;2023-01-28T08:43:33;4.75;;;4.10;;
78005;SDS011;67211;42.146;24.756;2023-01-28T08:45:58;4.22;;;3.10;;
78005;SDS011;67211;42.146;24.756;2023-01-28T08:48:24;4.70;;;3.60;;
78005;SDS011;67211;42.146;24.756;2023-01-28T08:50:49;4.57;;;3.28;;
78005;SDS011;67211;42.146;24.756;2023-01-28T08:53:15;5.53;;;3.75;;
78005;SDS011;67211;42.146;24.756;2023-01-28T08:55:43;5.80;;;4.28;;
78005;SDS011;67211;42.146;24.756;2023-01-28T08:58:09;5.15;;;4.65;;
78005;SDS011;67211;42.146;24.756;2023-01-28T09:00:37;4.97;;;3.70;;
78005;SDS011;67211;42.146;24.756;2023-01-28T09:03:03;4.38;;;3.33;;
78005;SDS011;67211;42.146;24.756;2023-01-28T09:05:28;4.60;;;4.00;;
78005;SDS011;67211;42.146;24.756;2023-01-28T09:07:56;4.95;;;4.45;;
78005;SDS011;67211;42.146;24.756;2023-01-28T09:10:21;5.07;;;4.25;;
78005;SDS011;67211;42.146;24.756;2023-01-28T09:12:47;7.57;;;4.32;;
78005;SDS011;67211;42.146;24.756;2023-01-28T09:15:12;4.07;;;3.22;;
78005;SDS011;67211;42.146;24.756;2023-01-28T09:17:38;5.05;;;3.63;;
78005;SDS011;67211;42.146;24.756;2023-01-28T09:20:04;4.78;;;3.67;;
78005;SDS011;67211;42.146;24.756;2023-01-28T09:22:31;4.95;;;4.10;;
78005;SDS011;67211;42.146;24.756;2023-01-28T09:24:56;5.03;;;3.50;;
78005;SDS011;67211;42.146;24.756;2023-01-28T09:27:22;5.60;;;3.75;;
78005;SDS011;67211;42.146;24.756;2023-01-28T09:29:47;6.03;;;3.45;;
78005;SDS011;67211;42.146;24.756;2023-01-28T09:32:13;4.05;;;3.13;;
78005;SDS011;67211;42.146;24.756;2023-01-28T09:34:38;3.97;;;3.58;;
78005;SDS011;67211;42.146;24.756;2023-01-28T09:37:04;4.90;;;3.83;;
78005;SDS011;67211;42.146;24.756;2023-01-28T09:39:29;4.80;;;3.75;;
78005;SDS011;67211;42.146;24.756;2023-01-28T09:44:33;3.88;;;3.20;;
78005;SDS011;67211;42.146;24.756;2023-01-28T09:47:09;4.20;;;3.05;;
78005;SDS011;67211;42.146;24.756;2023-01-28T09:49:44;4.07;;;2.78;;
78005;SDS011;67211;42.146;24.756;2023-01-28T09:52:13;4.50;;;2.88;;
78005;SDS011;67211;42.146;24.756;2023-01-28T09:57:24;4.55;;;3.35;;
78005;SDS011;67211;42.146;24.756;2023-01-28T09:59:51;4.38;;;3.60;;
78005;SDS011;67211;42.146;24.756;2023-01-28T10:07:50;6.30;;;3.15;;
78005;SDS011;67211;42.146;24.756;2023-01-28T10:10:24;4.38;;;3.42;;
78005;SDS011;67211;42.146;24.756;2023-01-28T10:13:01;4.85;;;3.70;;
78005;SDS011;67211;42.146;24.756;2023-01-28T10:15:38;4.50;;;3.22;;
78005;SDS011;67211;42.146;24.756;2023-01-28T10:18:09;4.03;;;3.13;;
78005;SDS011;67211;42.146;24.756;2023-01-28T10:20:45;4.95;;;3.42;;
78005;SDS011;67211;42.146;24.756;2023-01-28T10:23:22;10.07;;;3.25;;
78005;SDS011;67211;42.146;24.756;2023-01-28T10:25:49;4.75;;;3.13;;
78005;SDS011;67211;42.146;24.756;2023-01-28T10:28:19;4.07;;;2.97;;
78005;SDS011;67211;42.146;24.756;2023-01-28T10:30:46;5.82;;;4.28;;
78005;SDS011;67211;42.146;24.756;2023-01-28T10:33:18;4.15;;;2.80;;
78005;SDS011;67211;42.146;24.756;2023-01-28T10:35:46;5.53;;;3.70;;
78005;SDS011;67211;42.146;24.756;2023-01-28T10:38:13;5.45;;;3.85;;
78005;SDS011;67211;42.146;24.756;2023-01-28T10:40:43;4.63;;;3.55;;
78005;SDS011;67211;42.146;24.756;2023-01-28T10:43:12;7.88;;;4.03;;
78005;SDS011;67211;42.146;24.756;2023-01-28T10:48:38;5.70;;;3.90;;
78005;SDS011;67211;42.146;24.756;2023-01-28T10:53:36;6.50;;;3.35;;
78005;SDS011;67211;42.146;24.756;2023-01-28T10:56:06;5.20;;;3.92;;
78005;SDS011;67211;42.146;24.756;2023-01-28T10:58:36;4.65;;;3.70;;
78005;SDS011;67211;42.146;24.756;2023-01-28T11:01:12;5.18;;;3.15;;
78005;SDS011;67211;42.146;24.756;2023-01-28T11:03:37;7.60;;;6.40;;
78005;SDS011;67211;42.146;24.756;2023-01-28T11:06:04;7.53;;;4.32;;
78005;SDS011;67211;42.146;24.756;2023-01-28T11:08:30;5.50;;;3.33;;
78005;SDS011;67211;42.146;24.756;2023-01-28T11:10:55;14.57;;;6.80;;
78005;SDS011;67211;42.146;24.756;2023-01-28T11:13:23;9.88;;;6.10;;
78005;SDS011;67211;42.146;24.756;2023-01-28T11:16:03;7.53;;;4.93;;
78005;SDS011;67211;42.146;24.756;2023-01-28T11:18:39;6.25;;;4.25;;
78005;SDS011;67211;42.146;24.756;2023-01-28T11:21:24;7.20;;;4.43;;
78005;SDS011;67211;42.146;24.756;2023-01-28T11:24:01;5.80;;;4.22;;
78005;SDS011;67211;42.146;24.756;2023-01-28T11:26:35;5.00;;;4.25;;
78005;SDS011;67211;42.146;24.756;2023-01-28T11:29:02;4.30;;;3.17;;
78005;SDS011;67211;42.146;24.756;2023-01-28T11:31:27;5.47;;;3.85;;
78005;SDS011;67211;42.146;24.756;2023-01-28T11:33:54;4.32;;;3.58;;
78005;SDS011;67211;42.146;24.756;2023-01-28T11:36:28;4.55;;;3.88;;
78005;SDS011;67211;42.146;24.756;2023-01-28T12:00:40;5.82;;;4.72;;
78005;SDS011;67211;42.146;24.756;2023-01-28T12:09:22;7.45;;;5.45;;
78005;SDS011;67211;42.146;24.756;2023-01-28T12:11:59;7.35;;;4.75;;
78005;SDS011;67211;42.146;24.756;2023-01-28T12:42:26;6.53;;;5.80;;
78005;SDS011;67211;42.146;24.756;2023-01-28T12:45:02;5.63;;;4.80;;
78005;SDS011;67211;42.146;24.756;2023-01-28T12:47:36;5.78;;;4.82;;
78005;SDS011;67211;42.146;24.756;2023-01-28T12:50:14;6.32;;;4.97;;
78005;SDS011;67211;42.146;24.756;2023-01-28T12:52:53;7.97;;;5.60;;
78005;SDS011;67211;42.146;24.756;2023-01-28T12:55:29;7.25;;;5.57;;
78005;SDS011;67211;42.146;24.756;2023-01-28T12:58:02;6.85;;;5.40;;
78005;SDS011;67211;42.146;24.756;2023-01-28T13:00:31;6.10;;;5.22;;
78005;SDS011;67211;42.146;24.756;2023-01-28T13:05:52;8.35;;;5.90;;
78005;SDS011;67211;42.146;24.756;2023-01-28T13:08:22;7.78;;;5.63;;
78005;SDS011;67211;42.146;24.756;2023-01-28T13:10:49;11.40;;;6.30;;
78005;SDS011;67211;42.146;24.756;2023-01-28T13:13:16;7.13;;;5.35;;
78005;SDS011;67211;42.146;24.756;2023-01-28T13:15:52;9.20;;;6.00;;
78005;SDS011;67211;42.146;24.756;2023-01-28T13:21:05;7.55;;;5.40;;
78005;SDS011;67211;42.146;24.756;2023-01-28T13:26:11;6.70;;;5.10;;
78005;SDS011;67211;42.146;24.756;2023-01-28T13:28:52;7.28;;;5.25;;
78005;SDS011;67211;42.146;24.756;2023-01-28T13:31:19;7.90;;;5.80;;
78005;SDS011;67211;42.146;24.756;2023-01-28T13:33:47;8.65;;;6.78;;
78005;SDS011;67211;42.146;24.756;2023-01-28T13:39:04;8.00;;;6.15;;
78005;SDS011;67211;42.146;24.756;2023-01-28T13:41:36;7.70;;;5.25;;
78005;SDS011;67211;42.146;24.756;2023-01-28T13:44:03;7.22;;;5.18;;
78005;SDS011;67211;42.146;24.756;2023-01-28T13:46:40;8.70;;;6.22;;
78005;SDS011;67211;42.146;24.756;2023-01-28T13:49:08;7.80;;;6.05;;
78005;SDS011;67211;42.146;24.756;2023-01-28T13:52:02;8.75;;;6.25;;
78005;SDS011;67211;42.146;24.756;2023-01-28T13:54:32;8.50;;;6.18;;
78005;SDS011;67211;42.146;24.756;2023-01-28T14:08:11;7.95;;;5.65;;
78005;SDS011;67211;42.146;24.756;2023-01-28T14:18:31;9.23;;;6.82;;
78005;SDS011;67211;42.146;24.756;2023-01-28T14:21:02;10.98;;;6.10;;
78005;SDS011;67211;42.146;24.756;2023-01-28T14:23:36;8.90;;;5.97;;
78005;SDS011;67211;42.146;24.756;2023-01-28T14:30:55;8.93;;;6.07;;
78005;SDS011;67211;42.146;24.756;2023-01-28T14:33:26;8.63;;;6.70;;
78005;SDS011;67211;42.146;24.756;2023-01-28T14:35:52;10.00;;;7.45;;
78005;SDS011;67211;42.146;24.756;2023-01-28T14:38:18;12.93;;;8.45;;
78005;SDS011;67211;42.146;24.756;2023-01-28T14:40:50;26.23;;;11.98;;
78005;SDS011;67211;42.146;24.756;2023-01-28T14:43:23;15.05;;;9.82;;
78005;SDS011;67211;42.146;24.756;2023-01-28T14:48:32;16.88;;;8.85;;
78005;SDS011;67211;42.146;24.756;2023-01-28T15:01:55;20.42;;;9.85;;
78005;SDS011;67211;42.146;24.756;2023-01-28T15:04:29;23.13;;;11.30;;
78005;SDS011;67211;42.146;24.756;2023-01-28T15:07:14;19.45;;;10.98;;
78005;SDS011;67211;42.146;24.756;2023-01-28T15:09:41;16.80;;;9.55;;
78005;SDS011;67211;42.146;24.756;2023-01-28T15:12:07;12.95;;;8.23;;
78005;SDS011;67211;42.146;24.756;2023-01-28T15:14:34;11.32;;;7.88;;
78005;SDS011;67211;42.146;24.756;2023-01-28T15:17:00;14.95;;;10.00;;
78005;SDS011;67211;42.146;24.756;2023-01-28T15:19:27;10.75;;;8.52;;
78005;SDS011;67211;42.146;24.756;2023-01-28T15:21:54;11.25;;;7.88;;
78005;SDS011;67211;42.146;24.756;2023-01-28T15:24:20;10.40;;;6.85;;
78005;SDS011;67211;42.146;24.756;2023-01-28T15:26:46;10.77;;;8.52;;
78005;SDS011;67211;42.146;24.756;2023-01-28T15:31:56;16.83;;;9.27;;
78005;SDS011;67211;42.146;24.756;2023-01-28T15:34:22;16.08;;;11.27;;
78005;SDS011;67211;42.146;24.756;2023-01-28T15:36:54;15.45;;;9.35;;
78005;SDS011;67211;42.146;24.756;2023-01-28T15:39:21;13.05;;;9.05;;
78005;SDS011;67211;42.146;24.756;2023-01-28T15:41:49;13.13;;;9.70;;
78005;SDS011;67211;42.146;24.756;2023-01-28T15:44:18;17.33;;;11.70;;
78005;SDS011;67211;42.146;24.756;2023-01-28T15:46:57;13.07;;;8.82;;
78005;SDS011;67211;42.146;24.756;2023-01-28T15:49:25;14.82;;;9.55;;
78005;SDS011;67211;42.146;24.756;2023-01-28T15:51:53;11.75;;;8.60;;
78005;SDS011;67211;42.146;24.756;2023-01-28T15:54:18;13.95;;;10.68;;
78005;SDS011;67211;42.146;24.756;2023-01-28T15:56:44;9.68;;;7.28;;
78005;SDS011;67211;42.146;24.756;2023-01-28T15:59:17;12.10;;;9.18;;
78005;SDS011;67211;42.146;24.756;2023-01-28T16:04:54;9.50;;;6.78;;
78005;SDS011;67211;42.146;24.756;2023-01-28T16:07:20;10.27;;;7.03;;
78005;SDS011;67211;42.146;24.756;2023-01-28T16:09:49;8.85;;;6.60;;
78005;SDS011;67211;42.146;24.756;2023-01-28T16:14:48;10.32;;;7.53;;
78005;SDS011;67211;42.146;24.756;2023-01-28T16:17:20;11.60;;;8.20;;
78005;SDS011;67211;42.146;24.756;2023-01-28T16:19:48;11.77;;;8.10;;
78005;SDS011;67211;42.146;24.756;2023-01-28T16:24:59;22.38;;;14.02;;
78005;SDS011;67211;42.146;24.756;2023-01-28T16:27:26;21.75;;;10.63;;
78005;SDS011;67211;42.146;24.756;2023-01-28T16:29:52;12.55;;;8.10;;
78005;SDS011;67211;42.146;24.756;2023-01-28T16:32:51;13.52;;;9.55;;
78005;SDS011;67211;42.146;24.756;2023-01-28T16:35:14;36.00;;;17.80;;
78005;SDS011;67211;42.146;24.756;2023-01-28T16:37:41;21.40;;;12.65;;
78005;SDS011;67211;42.146;24.756;2023-01-28T16:40:08;15.30;;;11.15;;
78005;SDS011;67211;42.146;24.756;2023-01-28T16:42:36;11.82;;;9.20;;
78005;SDS011;67211;42.146;24.756;2023-01-28T16:45:01;13.10;;;10.25;;
78005;SDS011;67211;42.146;24.756;2023-01-28T16:47:27;13.90;;;9.65;;
78005;SDS011;67211;42.146;24.756;2023-01-28T16:49:53;11.93;;;8.75;;
78005;SDS011;67211;42.146;24.756;2023-01-28T16:52:18;15.18;;;10.23;;
78005;SDS011;67211;42.146;24.756;2023-01-28T16:54:43;14.20;;;10.10;;
78005;SDS011;67211;42.146;24.756;2023-01-28T16:57:15;18.38;;;9.60;;
78005;SDS011;67211;42.146;24.756;2023-01-28T16:59:42;20.45;;;10.38;;
78005;SDS011;67211;42.146;24.756;2023-01-28T17:02:09;17.38;;;9.95;;
78005;SDS011;67211;42.146;24.756;2023-01-28T17:04:36;18.23;;;11.88;;